createdAt,value
2022-09-15T00:00:26.029Z,13.1
2022-09-15T00:10:26.995Z,13.1
2022-09-15T00:20:27.431Z,13.1
2022-09-15T00:30:28.017Z,12.9
2022-09-15T00:40:28.699Z,12.8
2022-09-15T00:50:29.506Z,12.7
2022-09-15T01:00:30.375Z,12.6
2022-09-15T01:10:31.359Z,12.5
2022-09-15T01:20:32.369Z,12.4
2022-09-15T01:30:32.472Z,12.3
2022-09-15T01:40:33.290Z,12.3
2022-09-15T02:00:34.332Z,12.4
2022-09-15T02:10:34.426Z,12.5
2022-09-15T02:20:34.619Z,12.5
2022-09-15T02:30:35.088Z,12.6
2022-09-15T02:40:36.039Z,12.7
2022-09-15T02:50:36.456Z,12.8
2022-09-15T03:00:36.572Z,13
2022-09-15T03:10:36.961Z,13.3
2022-09-15T03:20:37.012Z,13.5
2022-09-15T03:30:37.390Z,13.5
2022-09-15T03:40:37.592Z,13.5
2022-09-15T03:50:38.373Z,13.5
2022-09-15T04:00:38.537Z,13.5
2022-09-15T04:10:38.986Z,13.5
2022-09-15T04:20:39.331Z,13.6
2022-09-15T04:30:39.688Z,13.5
2022-09-15T04:40:40.584Z,13.6
2022-09-15T04:50:40.657Z,13.8
2022-09-15T05:00:41.634Z,13.8
2022-09-15T05:10:41.995Z,13.8
2022-09-15T05:30:44.502Z,13.8
2022-09-15T05:40:44.092Z,13.8
2022-09-15T06:34:45.563Z,14.2
2022-09-15T06:44:46.240Z,14.3
2022-09-15T06:54:47.258Z,14.3
2022-09-15T07:04:48.224Z,14.4
2022-09-15T07:14:48.545Z,14.5
2022-09-15T07:24:48.799Z,14.6
2022-09-15T07:44:50.237Z,14.7
2022-09-15T07:54:50.739Z,14.9
2022-09-15T08:04:51.167Z,15.1
2022-09-15T08:14:51.479Z,15.2
2022-09-15T08:24:51.733Z,15.4
2022-09-15T08:34:51.816Z,15.4
2022-09-15T08:44:52.544Z,15.6
2022-09-15T08:54:52.714Z,15.8
2022-09-15T09:04:53.227Z,15.9
2022-09-15T09:24:54.166Z,16.3
2022-09-15T09:34:54.565Z,16.3
2022-09-15T09:44:55.140Z,16
2022-09-15T09:54:55.321Z,14.9
2022-09-15T10:04:56.297Z,14.6
2022-09-15T10:14:56.318Z,14.7
2022-09-15T10:24:56.409Z,14.8
2022-09-15T10:34:56.902Z,15.1
2022-09-15T10:44:57.115Z,15.3
2022-09-15T10:54:58.018Z,15.7
2022-09-15T11:04:58.579Z,16.4
2022-09-15T11:14:58.873Z,17.3
2022-09-15T11:34:59.308Z,18.4
2022-09-15T11:45:00.146Z,18.5
2022-09-15T12:15:02.264Z,17.9
2022-09-15T12:25:02.786Z,17.7
2022-09-15T12:35:03.615Z,17.5
2022-09-15T12:45:04.347Z,18
2022-09-15T12:55:05.044Z,18.1
2022-09-15T13:05:05.124Z,18.5
2022-09-15T13:15:05.654Z,18.5
2022-09-15T13:25:05.892Z,18.4
2022-09-15T13:35:12.778Z,18.3
2022-09-15T13:45:06.377Z,18.4
2022-09-15T13:55:07.194Z,18.2
2022-09-15T14:05:07.825Z,18.1
2022-09-15T14:15:08.055Z,18.1
2022-09-15T14:25:08.935Z,18
2022-09-15T14:35:09.356Z,17.7
2022-09-15T14:55:10.363Z,17
2022-09-15T15:05:11.280Z,16.9
2022-09-15T15:15:11.767Z,16.9
2022-09-15T15:25:12.148Z,16.9
2022-09-15T15:35:12.915Z,16.9
2022-09-15T15:55:13.565Z,17.1
2022-09-15T16:15:14.347Z,17.2
2022-09-15T16:25:15.334Z,17.2
2022-09-15T16:35:15.987Z,17.1
2022-09-15T16:45:16.382Z,16.8
2022-09-15T16:55:16.877Z,16.8
2022-09-15T17:05:17.405Z,16.7
2022-09-15T17:15:18.021Z,16.7
2022-09-15T17:25:19.017Z,16.6
2022-09-15T17:45:19.658Z,16.3
2022-09-15T17:55:20.432Z,16.1
2022-09-15T18:05:20.666Z,15.8
2022-09-15T18:25:21.738Z,15.5
2022-09-15T18:35:22.305Z,15.5
2022-09-15T18:45:22.577Z,15.4
2022-09-15T18:55:23.073Z,15.3
2022-09-15T19:05:23.709Z,15.4
2022-09-15T19:15:24.645Z,15.3
2022-09-15T19:25:24.700Z,15.3
2022-09-15T19:35:25.638Z,15
2022-09-15T19:45:26.496Z,14.8
2022-09-15T19:55:26.602Z,14.6
2022-09-15T20:05:27.043Z,14.4
2022-09-15T20:15:27.921Z,14.2
2022-09-15T20:25:28.363Z,14.1
2022-09-15T20:35:28.929Z,14.1
2022-09-15T20:45:31.038Z,14
2022-09-15T20:55:29.616Z,13.9
2022-09-15T21:05:29.936Z,13.8
2022-09-15T21:15:30.059Z,13.7
2022-09-15T21:25:30.580Z,13.6
2022-09-15T21:35:31.073Z,13.4
2022-09-15T21:45:31.738Z,13.4
2022-09-15T21:55:31.913Z,13.4
2022-09-15T22:05:32.393Z,13.4
2022-09-15T22:15:33.245Z,13.4
2022-09-15T22:25:33.325Z,13.4
2022-09-15T22:35:34.281Z,13.4
2022-09-15T22:55:35.106Z,13.3
2022-09-15T23:05:35.750Z,13.3
2022-09-15T23:15:36.000Z,13.3
2022-09-15T23:25:36.905Z,13.2
2022-09-15T23:35:37.341Z,13.1
2022-09-15T23:45:38.084Z,13.1
2022-09-15T23:55:38.169Z,13.1
